Mayport Ns (Adm David L. Mcdonald Field) Airport
KNRB : now visible

Airfield :











YOU CAN JOIN US ON...

 
LOGIN :

Register | Disclaimer

   EN    FR    IT 

 









Legend :    VFR   Marginal VFR   IFR   Intensive IFR   Very Intensive IFR
Visi :
Ceiling :
>= 8 km
>= 3000ft
5 to 8 km
1000 to 3000 ft
1500m to 5 km
500 to 1000 ft
800 to 1500m
200 to 500 ft
< 800m
< 200 ft
Symbols :   Thunderstorms  Fog  Heavy snow  Heavy precipitations  Wind > 20 kt






- Airport Elevation : 15 ft


KNRB - Mayport Ns (Adm David L. Mcdonald Field)

CURRENT METAR :
  • 271442Z 31007KT 10SM BKN010 BKN080 OVC160 22/19 A3016 RMK AO2 T02220189

EXPIRED METARs :
  • 271352Z 26003KT 10SM FEW020 SCT180 BKN250 21/19 A3014 RMK AO2 SLP205 T02060189
  • 271252Z 00000KT 10SM FEW020 BKN180 BKN250 18/18 A3013 RMK AO2 SLP202 T01830183
  • 271152Z 23003KT 10SM CLR 18/17 A3013 RMK AO2 SLP200 T01780172 10194 20172 53013

TAF COR TAF KNRB
Valid from the 27 at 07:00 until the 28 at 07:00 UTC


2707/2807 VRB05KT 9999 FEW025 SCT050 BKN200 QNH3003INS
BECMG 2718/2720 VRB04KT 9999 SCT025 BKN050 QNH2999INS T18/2711Z T27/2720Z COR 0741 FN00205
KZJX FIR / North America



MET'MAP, your aeronautical weather chart ! - Copyright ORBIFLY December 2007 - Disclaimer

ORBIFLY MET'MAP TEAM :

Programming & Development : Alexandra Zaïnal
Concept & original design : Baudouin d'Aumeries
Assistance for programming : Marc-Olivier Méhu
Technical & hardware support : Manuel Goepfert

Contact : metmap@orbifly.com




SOURCES & CREDITS :

   NOAA       Earth
Advisory